createdAt,value
2018-02-22T06:40:16.000Z,31
2018-02-22T06:41:16.000Z,30
2018-02-22T06:42:16.000Z,30
2018-02-22T06:43:16.000Z,30
2018-02-22T06:44:16.000Z,30
2018-02-22T06:45:16.000Z,30
2018-02-22T06:46:16.000Z,30
2018-02-22T06:47:16.000Z,30
2018-02-22T06:48:16.000Z,30
2018-02-22T06:49:16.000Z,30
2018-02-22T06:50:16.000Z,30
2018-02-22T06:51:16.000Z,30
2018-02-22T06:52:16.000Z,30
2018-02-22T06:53:16.000Z,29
2018-02-22T06:54:16.000Z,29
2018-02-22T06:55:16.000Z,29
2018-02-22T06:56:16.000Z,29
2018-02-22T06:57:16.000Z,29
2018-02-22T06:58:16.000Z,29
2018-02-22T06:59:16.000Z,29
2018-02-22T07:01:16.000Z,28
2018-02-22T07:02:16.000Z,28
2018-02-22T07:04:16.000Z,28
2018-02-22T07:05:16.000Z,28
2018-02-22T07:07:16.000Z,28
2018-02-22T07:08:16.000Z,28
2018-02-22T07:09:16.000Z,28
2018-02-22T07:10:16.000Z,28
2018-02-22T07:11:16.000Z,28
2018-02-22T07:12:16.000Z,28
2018-02-22T07:13:16.000Z,28
2018-02-22T07:15:16.000Z,28
2018-02-22T07:16:16.000Z,28
2018-02-22T07:17:16.000Z,28
2018-02-22T07:18:16.000Z,28
2018-02-22T07:20:16.000Z,28
2018-02-22T07:21:16.000Z,28
2018-02-22T07:22:16.000Z,28
2018-02-22T07:23:16.000Z,28
2018-02-22T07:24:16.000Z,28
2018-02-22T07:26:16.000Z,27
2018-02-22T07:27:16.000Z,27
2018-02-22T07:28:16.000Z,27
2018-02-22T07:29:16.000Z,27
2018-02-22T07:30:16.000Z,27
2018-02-22T07:32:16.000Z,27
2018-02-22T07:33:16.000Z,27
2018-02-22T07:35:16.000Z,27
2018-02-22T07:36:16.000Z,27
2018-02-22T07:38:16.000Z,27
2018-02-22T07:39:16.000Z,27
2018-02-22T07:40:16.000Z,27
2018-02-22T07:41:16.000Z,27
2018-02-22T07:42:16.000Z,27
2018-02-22T07:43:16.000Z,27
2018-02-22T07:44:16.000Z,27
2018-02-22T07:45:16.000Z,27
2018-02-22T07:47:16.000Z,27
2018-02-22T07:48:16.000Z,27
2018-02-22T07:49:16.000Z,27
2018-02-22T07:51:16.000Z,27
2018-02-22T07:52:16.000Z,27
2018-02-22T07:53:16.000Z,27
2018-02-22T07:55:16.000Z,26
2018-02-22T07:56:16.000Z,27
2018-02-22T07:57:16.000Z,27
2018-02-22T07:58:16.000Z,27
2018-02-22T07:59:16.000Z,26
2018-02-22T08:00:16.000Z,26
2018-02-22T08:01:16.000Z,26
2018-02-22T08:02:16.000Z,26
2018-02-22T08:03:16.000Z,26
2018-02-22T08:07:01.000Z,25
2018-02-22T08:08:01.000Z,25
2018-02-22T08:09:01.000Z,25
2018-02-22T08:10:01.000Z,25
2018-02-22T08:11:01.000Z,25
2018-02-22T08:12:01.000Z,25
2018-02-22T08:13:01.000Z,25
2018-02-22T08:14:01.000Z,25
2018-02-22T08:15:01.000Z,25
2018-02-22T08:16:01.000Z,25
2018-02-22T08:18:01.000Z,25
2018-02-22T08:19:01.000Z,25
2018-02-22T08:20:01.000Z,25
2018-02-22T08:21:01.000Z,25
2018-02-22T08:22:01.000Z,24
2018-02-22T08:23:01.000Z,24
2018-02-22T08:24:01.000Z,24
2018-02-22T08:25:01.000Z,24
2018-02-22T08:26:01.000Z,24
2018-02-22T08:27:01.000Z,24
2018-02-22T08:28:01.000Z,24
2018-02-22T08:29:01.000Z,24
2018-02-22T08:30:01.000Z,23
2018-02-22T08:31:01.000Z,23
2018-02-22T08:32:01.000Z,23
2018-02-22T08:33:01.000Z,23
2018-02-22T08:34:01.000Z,23
2018-02-22T08:36:01.000Z,23
2018-02-22T08:37:01.000Z,23
2018-02-22T08:38:01.000Z,23
2018-02-22T08:39:01.000Z,23
2018-02-22T08:40:01.000Z,23
2018-02-22T08:41:01.000Z,23
2018-02-22T08:42:01.000Z,23
2018-02-22T08:43:01.000Z,23
2018-02-22T08:44:01.000Z,23
2018-02-22T08:45:01.000Z,23
2018-02-22T08:46:01.000Z,23
2018-02-22T08:47:01.000Z,23
2018-02-22T08:48:01.000Z,23
2018-02-22T08:50:01.000Z,23
2018-02-22T08:51:01.000Z,23
2018-02-22T08:53:01.000Z,24
2018-02-22T08:54:01.000Z,24
2018-02-22T08:55:01.000Z,24
2018-02-22T08:56:01.000Z,24
2018-02-22T08:58:01.000Z,24
2018-02-22T08:59:01.000Z,24
2018-02-22T09:01:01.000Z,24
2018-02-22T09:02:01.000Z,24
2018-02-22T09:03:01.000Z,24
2018-02-22T09:04:01.000Z,24
2018-02-22T09:05:01.000Z,24
2018-02-22T09:06:01.000Z,24
2018-02-22T09:07:01.000Z,24
2018-02-22T09:08:01.000Z,24
2018-02-22T09:09:01.000Z,24
2018-02-22T09:10:01.000Z,24
2018-02-22T09:11:01.000Z,24
2018-02-22T09:12:01.000Z,24
2018-02-22T09:13:01.000Z,24
2018-02-22T09:14:01.000Z,24
2018-02-22T09:15:01.000Z,24
2018-02-22T09:16:01.000Z,24
2018-02-22T09:17:01.000Z,24
2018-02-22T09:18:01.000Z,24
2018-02-22T09:19:01.000Z,24
2018-02-22T09:21:01.000Z,24
2018-02-22T09:22:01.000Z,24
2018-02-22T09:23:01.000Z,24
2018-02-22T09:24:01.000Z,24
2018-02-22T09:25:01.000Z,24
2018-02-22T09:26:01.000Z,24
2018-02-22T09:27:01.000Z,24
2018-02-22T09:28:01.000Z,24
2018-02-22T09:29:01.000Z,24
2018-02-22T09:30:01.000Z,24
2018-02-22T09:31:01.000Z,24
2018-02-22T09:32:01.000Z,24
2018-02-22T09:33:01.000Z,24
2018-02-22T09:34:01.000Z,24
2018-02-22T09:35:01.000Z,24
2018-02-22T09:36:01.000Z,24
2018-02-22T09:37:01.000Z,24
2018-02-22T09:38:01.000Z,24
2018-02-22T09:39:01.000Z,24
2018-02-22T09:40:01.000Z,24
2018-02-22T09:41:01.000Z,24
2018-02-22T09:43:01.000Z,24
2018-02-22T09:44:01.000Z,24
2018-02-22T09:45:01.000Z,24
2018-02-22T09:46:01.000Z,24
2018-02-22T09:48:01.000Z,24
2018-02-22T09:49:01.000Z,24
2018-02-22T09:50:01.000Z,24
2018-02-22T09:51:01.000Z,25
2018-02-22T09:52:01.000Z,24
2018-02-22T09:53:01.000Z,25
2018-02-22T09:54:01.000Z,24
2018-02-22T09:56:01.000Z,24
2018-02-22T09:57:01.000Z,24
2018-02-22T09:59:01.000Z,23
2018-02-22T10:00:01.000Z,23
2018-02-22T10:01:01.000Z,23
2018-02-22T10:02:01.000Z,23
2018-02-22T10:03:01.000Z,23
2018-02-22T10:04:01.000Z,23
2018-02-22T10:05:01.000Z,23
2018-02-22T10:06:01.000Z,23
2018-02-22T10:07:01.000Z,23
2018-02-22T10:09:01.000Z,23
2018-02-22T10:10:01.000Z,23
2018-02-22T10:11:01.000Z,23
2018-02-22T10:12:01.000Z,23
2018-02-22T10:13:01.000Z,23
2018-02-22T10:14:01.000Z,23
2018-02-22T10:15:01.000Z,23
2018-02-22T10:16:01.000Z,23
2018-02-22T10:18:01.000Z,23
2018-02-22T10:19:01.000Z,23
2018-02-22T10:20:01.000Z,23
2018-02-22T10:21:01.000Z,23
2018-02-22T10:22:01.000Z,23
2018-02-22T10:23:01.000Z,23
2018-02-22T10:24:01.000Z,23
2018-02-22T10:25:01.000Z,23
2018-02-22T10:26:01.000Z,23
2018-02-22T10:27:01.000Z,23
2018-02-22T10:28:01.000Z,23
2018-02-22T10:29:01.000Z,23
2018-02-22T10:30:01.000Z,23
2018-02-22T10:31:01.000Z,23
2018-02-22T10:32:01.000Z,23
2018-02-22T10:33:01.000Z,23
2018-02-22T10:34:01.000Z,23
2018-02-22T10:35:01.000Z,23
2018-02-22T10:36:01.000Z,23
2018-02-22T10:37:01.000Z,23
2018-02-22T10:38:01.000Z,23
2018-02-22T10:39:01.000Z,23
2018-02-22T10:42:47.000Z,23
2018-02-22T10:43:47.000Z,23
2018-02-22T10:44:47.000Z,23
2018-02-22T10:45:47.000Z,24
2018-02-22T10:46:47.000Z,24
2018-02-22T10:47:47.000Z,23
2018-02-22T10:48:47.000Z,24
2018-02-22T10:49:47.000Z,23
2018-02-22T10:50:47.000Z,24
2018-02-22T10:51:47.000Z,24
2018-02-22T10:52:47.000Z,24
2018-02-22T10:54:47.000Z,24
2018-02-22T10:55:47.000Z,24
2018-02-22T10:56:47.000Z,24
2018-02-22T10:57:47.000Z,24
2018-02-22T10:58:47.000Z,24
2018-02-22T10:59:47.000Z,24
2018-02-22T11:00:47.000Z,24
2018-02-22T11:01:47.000Z,24
2018-02-22T11:02:47.000Z,24
2018-02-22T11:03:47.000Z,24
2018-02-22T11:04:47.000Z,24
2018-02-22T11:05:47.000Z,23
2018-02-22T11:06:47.000Z,23
2018-02-22T11:07:47.000Z,23
2018-02-22T11:08:47.000Z,23
2018-02-22T11:09:47.000Z,23
2018-02-22T11:10:47.000Z,23
2018-02-22T11:11:47.000Z,23
2018-02-22T11:12:47.000Z,23
2018-02-22T11:13:47.000Z,23
2018-02-22T11:15:47.000Z,23
2018-02-22T11:16:47.000Z,23
2018-02-22T11:17:47.000Z,23
2018-02-22T11:18:47.000Z,23
2018-02-22T11:19:47.000Z,23
2018-02-22T11:20:47.000Z,23
2018-02-22T11:21:47.000Z,23
2018-02-22T11:22:47.000Z,23
2018-02-22T11:23:47.000Z,23
2018-02-22T11:24:47.000Z,23
2018-02-22T11:25:47.000Z,23
2018-02-22T11:26:47.000Z,23
2018-02-22T11:28:47.000Z,23
2018-02-22T11:30:47.000Z,23
2018-02-22T11:31:47.000Z,23
2018-02-22T11:32:47.000Z,23
2018-02-22T11:34:47.000Z,23
2018-02-22T11:35:47.000Z,24
2018-02-22T11:36:47.000Z,24
2018-02-22T11:37:47.000Z,24
2018-02-22T11:38:47.000Z,24
2018-02-22T11:40:47.000Z,24
2018-02-22T11:41:47.000Z,24
2018-02-22T11:42:47.000Z,24
2018-02-22T11:44:47.000Z,23
2018-02-22T11:45:47.000Z,24
2018-02-22T11:46:47.000Z,24
2018-02-22T11:47:47.000Z,24
2018-02-22T11:48:47.000Z,23
2018-02-22T11:49:47.000Z,24
2018-02-22T11:50:47.000Z,23
2018-02-22T11:52:47.000Z,23
2018-02-22T11:53:47.000Z,24
2018-02-22T11:54:47.000Z,24
2018-02-22T11:55:47.000Z,24
2018-02-22T11:56:47.000Z,24
2018-02-22T11:57:47.000Z,24
2018-02-22T11:58:47.000Z,24
2018-02-22T11:59:47.000Z,24
2018-02-22T12:00:47.000Z,24
2018-02-22T12:02:47.000Z,23
2018-02-22T12:03:47.000Z,24
2018-02-22T12:04:47.000Z,24
2018-02-22T12:05:47.000Z,24
2018-02-22T12:06:47.000Z,23
2018-02-22T12:07:47.000Z,24
2018-02-22T12:08:47.000Z,24
2018-02-22T12:09:47.000Z,23
2018-02-22T12:10:47.000Z,23
2018-02-22T12:11:47.000Z,23
2018-02-22T12:12:47.000Z,23
2018-02-22T12:13:47.000Z,23
2018-02-22T12:14:47.000Z,23
2018-02-22T12:15:47.000Z,23
2018-02-22T12:17:47.000Z,23
2018-02-22T12:18:47.000Z,24
2018-02-22T12:19:47.000Z,23
2018-02-22T12:20:47.000Z,23
2018-02-22T12:21:47.000Z,23
2018-02-22T12:22:47.000Z,23
2018-02-22T12:23:47.000Z,23
2018-02-22T12:24:47.000Z,23
2018-02-22T12:25:47.000Z,24
2018-02-22T12:26:47.000Z,24
2018-02-22T12:27:47.000Z,23
2018-02-22T12:28:47.000Z,23
2018-02-22T12:29:47.000Z,23
2018-02-22T12:31:47.000Z,23
2018-02-22T12:32:47.000Z,23
2018-02-22T12:33:47.000Z,23
2018-02-22T12:34:47.000Z,23
2018-02-22T12:35:47.000Z,23
2018-02-22T12:37:47.000Z,23
2018-02-22T12:38:47.000Z,23
2018-02-22T12:39:47.000Z,23
2018-02-22T12:40:47.000Z,23
2018-02-22T12:41:47.000Z,23
2018-02-22T12:43:47.000Z,23
2018-02-22T12:44:47.000Z,23
2018-02-22T12:45:47.000Z,23
2018-02-22T12:47:47.000Z,23
2018-02-22T12:48:47.000Z,24
2018-02-22T12:50:47.000Z,24
2018-02-22T12:51:47.000Z,24
2018-02-22T12:52:47.000Z,24
2018-02-22T12:53:47.000Z,24
2018-02-22T12:54:47.000Z,24
2018-02-22T12:56:47.000Z,24
2018-02-22T12:57:47.000Z,24
2018-02-22T12:58:47.000Z,24
2018-02-22T12:59:47.000Z,24
2018-02-22T13:00:47.000Z,24
2018-02-22T13:01:47.000Z,24
2018-02-22T13:02:47.000Z,24
2018-02-22T13:03:47.000Z,24
2018-02-22T13:05:47.000Z,24
2018-02-22T13:07:47.000Z,24
2018-02-22T13:08:47.000Z,24
2018-02-22T13:09:47.000Z,25
2018-02-22T13:10:47.000Z,24
2018-02-22T13:11:47.000Z,25
2018-02-22T13:12:47.000Z,24
2018-02-22T13:13:47.000Z,24
2018-02-22T13:14:47.000Z,24
2018-02-22T13:15:47.000Z,24
2018-02-22T13:16:47.000Z,24
2018-02-22T13:17:47.000Z,23
2018-02-22T13:19:47.000Z,23
2018-02-22T13:21:47.000Z,23
2018-02-22T13:22:47.000Z,23
2018-02-22T13:23:47.000Z,23
2018-02-22T13:24:47.000Z,24
2018-02-22T13:25:47.000Z,23
2018-02-22T13:26:47.000Z,24
2018-02-22T13:28:47.000Z,23
2018-02-22T13:29:47.000Z,23
2018-02-22T13:30:47.000Z,23
2018-02-22T13:31:47.000Z,23
2018-02-22T13:32:47.000Z,24
2018-02-22T13:33:47.000Z,23
2018-02-22T13:34:47.000Z,23
2018-02-22T13:35:47.000Z,23
2018-02-22T13:36:47.000Z,23
2018-02-22T13:37:47.000Z,23
2018-02-22T13:38:47.000Z,23
2018-02-22T13:39:47.000Z,24
2018-02-22T13:41:47.000Z,23
2018-02-22T13:42:47.000Z,24
2018-02-22T13:43:47.000Z,24
2018-02-22T13:44:47.000Z,24
2018-02-22T13:45:47.000Z,24
2018-02-22T13:46:47.000Z,24
2018-02-22T13:47:47.000Z,24
2018-02-22T13:48:47.000Z,24
2018-02-22T13:49:47.000Z,24
2018-02-22T13:50:47.000Z,24
2018-02-22T13:51:47.000Z,24
2018-02-22T13:52:47.000Z,24
2018-02-22T13:53:47.000Z,24
2018-02-22T13:54:47.000Z,24
2018-02-22T13:55:47.000Z,24
2018-02-22T13:57:47.000Z,24
2018-02-22T13:58:47.000Z,24
2018-02-22T13:59:47.000Z,24
2018-02-22T14:00:47.000Z,24
2018-02-22T14:01:47.000Z,24
2018-02-22T14:03:47.000Z,24
2018-02-22T14:04:47.000Z,24
2018-02-22T14:05:47.000Z,24
2018-02-22T14:06:47.000Z,24
2018-02-22T14:07:47.000Z,24
2018-02-22T14:09:47.000Z,24
2018-02-22T14:10:47.000Z,24
2018-02-22T14:11:47.000Z,24
2018-02-22T14:12:47.000Z,24
2018-02-22T14:14:47.000Z,24
2018-02-22T14:16:47.000Z,24
2018-02-22T14:17:47.000Z,24
2018-02-22T14:18:47.000Z,24
2018-02-22T14:19:47.000Z,24
2018-02-22T14:20:47.000Z,24
2018-02-22T14:21:47.000Z,24
2018-02-22T14:22:47.000Z,24
2018-02-22T14:23:47.000Z,24
2018-02-22T14:24:47.000Z,24
2018-02-22T14:25:47.000Z,23
2018-02-22T14:26:47.000Z,23
2018-02-22T14:27:47.000Z,23
2018-02-22T14:28:47.000Z,22
2018-02-22T14:29:47.000Z,22
2018-02-22T14:31:47.000Z,21
2018-02-22T14:32:47.000Z,21
2018-02-22T14:34:47.000Z,21
2018-02-22T14:35:47.000Z,21
2018-02-22T14:36:47.000Z,22
2018-02-22T14:38:47.000Z,22
2018-02-22T14:39:47.000Z,22
2018-02-22T14:40:47.000Z,22
2018-02-22T14:41:47.000Z,22
2018-02-22T14:42:47.000Z,22
2018-02-22T14:43:47.000Z,23
2018-02-22T14:44:47.000Z,23
2018-02-22T14:45:47.000Z,23
2018-02-22T14:46:47.000Z,23
2018-02-22T14:47:47.000Z,23
2018-02-22T14:48:47.000Z,23
2018-02-22T14:49:47.000Z,23
2018-02-22T14:50:47.000Z,23
2018-02-22T14:51:47.000Z,23
2018-02-22T14:52:47.000Z,23
2018-02-22T14:54:47.000Z,23
2018-02-22T14:55:47.000Z,23
2018-02-22T14:56:47.000Z,23
2018-02-22T14:58:47.000Z,23
2018-02-22T14:59:47.000Z,24
2018-02-22T15:00:47.000Z,24
2018-02-22T15:01:47.000Z,24
2018-02-22T15:02:47.000Z,24
2018-02-22T15:04:47.000Z,24
2018-02-22T15:05:47.000Z,24
2018-02-22T15:06:47.000Z,24
2018-02-22T15:07:47.000Z,24
2018-02-22T15:08:47.000Z,24
2018-02-22T15:09:47.000Z,24
2018-02-22T15:10:47.000Z,24
2018-02-22T15:11:47.000Z,24
2018-02-22T15:13:47.000Z,24
2018-02-22T15:14:47.000Z,24
2018-02-22T15:15:47.000Z,24
2018-02-22T15:16:47.000Z,24
2018-02-22T15:17:47.000Z,24
2018-02-22T15:18:47.000Z,24
2018-02-22T15:19:47.000Z,24
2018-02-22T15:20:47.000Z,24
2018-02-22T15:21:47.000Z,24
2018-02-22T15:22:47.000Z,24
2018-02-22T15:23:47.000Z,24
2018-02-22T15:24:47.000Z,24
2018-02-22T15:25:47.000Z,24
2018-02-22T15:26:47.000Z,24
2018-02-22T15:27:47.000Z,24
2018-02-22T15:28:47.000Z,24
2018-02-22T15:29:47.000Z,24
2018-02-22T15:30:47.000Z,24
2018-02-22T15:31:47.000Z,24
2018-02-22T15:32:47.000Z,24
2018-02-22T15:33:47.000Z,24
2018-02-22T15:34:47.000Z,24
2018-02-22T15:36:47.000Z,24
2018-02-22T15:37:47.000Z,24
2018-02-22T15:38:47.000Z,24
2018-02-22T15:39:47.000Z,24
2018-02-22T15:40:47.000Z,24
2018-02-22T15:41:47.000Z,24
2018-02-22T15:42:47.000Z,24
2018-02-22T15:43:47.000Z,24
2018-02-22T15:44:47.000Z,24
2018-02-22T15:45:47.000Z,24
2018-02-22T15:46:47.000Z,24
2018-02-22T15:47:47.000Z,24
2018-02-22T15:48:47.000Z,24
2018-02-22T15:49:47.000Z,24
2018-02-22T15:51:47.000Z,24
2018-02-22T15:52:47.000Z,24
2018-02-22T15:53:47.000Z,24
2018-02-22T15:54:47.000Z,25
2018-02-22T15:55:47.000Z,25
2018-02-22T15:56:47.000Z,25
2018-02-22T15:57:47.000Z,25
2018-02-22T15:59:47.000Z,25
2018-02-22T16:00:47.000Z,25
2018-02-22T16:01:47.000Z,25
2018-02-22T16:02:47.000Z,25
2018-02-22T16:03:47.000Z,25
2018-02-22T16:04:47.000Z,25
2018-02-22T16:05:47.000Z,25
2018-02-22T16:06:47.000Z,25
2018-02-22T16:07:47.000Z,25
2018-02-22T16:09:47.000Z,24
2018-02-22T16:10:47.000Z,25
2018-02-22T16:11:47.000Z,25
2018-02-22T16:12:47.000Z,25
2018-02-22T16:13:47.000Z,25
2018-02-22T16:14:47.000Z,25
2018-02-22T16:15:47.000Z,25
2018-02-22T16:16:47.000Z,25
2018-02-22T16:17:47.000Z,25
2018-02-22T16:18:47.000Z,25
2018-02-22T16:20:47.000Z,25
2018-02-22T16:21:47.000Z,25
2018-02-22T16:22:47.000Z,25
2018-02-22T16:23:47.000Z,25
2018-02-22T16:24:47.000Z,25
2018-02-22T16:25:47.000Z,25
2018-02-22T16:26:47.000Z,25
2018-02-22T16:27:47.000Z,25
2018-02-22T16:28:47.000Z,25
2018-02-22T16:29:47.000Z,25
2018-02-22T16:30:47.000Z,25
2018-02-22T16:31:47.000Z,25
2018-02-22T16:33:47.000Z,25
2018-02-22T16:34:47.000Z,25
2018-02-22T16:35:47.000Z,25
2018-02-22T16:37:47.000Z,25
2018-02-22T16:39:47.000Z,25
2018-02-22T16:40:47.000Z,25
2018-02-22T16:41:47.000Z,25
2018-02-22T16:42:47.000Z,25
2018-02-22T16:43:47.000Z,25
2018-02-22T16:45:47.000Z,25
2018-02-22T16:46:47.000Z,25
2018-02-22T16:47:47.000Z,25
2018-02-22T16:48:47.000Z,25
2018-02-22T16:49:47.000Z,25
2018-02-22T16:51:47.000Z,25
2018-02-22T16:52:47.000Z,25
2018-02-22T16:53:47.000Z,25
2018-02-22T16:54:47.000Z,25
2018-02-22T16:55:47.000Z,25
2018-02-22T16:56:47.000Z,25
2018-02-22T16:57:47.000Z,25
2018-02-22T16:58:47.000Z,25
2018-02-22T16:59:47.000Z,25
2018-02-22T17:00:47.000Z,25
2018-02-22T17:01:47.000Z,25
2018-02-22T17:02:47.000Z,25
2018-02-22T17:03:47.000Z,25
2018-02-22T17:04:47.000Z,25
2018-02-22T17:05:47.000Z,25
2018-02-22T17:06:47.000Z,25
2018-02-22T17:08:47.000Z,25
2018-02-22T17:09:47.000Z,25
2018-02-22T17:10:47.000Z,25
2018-02-22T17:12:47.000Z,25
2018-02-22T17:13:47.000Z,25
2018-02-22T17:14:47.000Z,25
2018-02-22T17:15:47.000Z,25
2018-02-22T17:16:47.000Z,25
2018-02-22T17:17:47.000Z,26
2018-02-22T17:18:47.000Z,25
2018-02-22T17:19:47.000Z,25
2018-02-22T17:20:47.000Z,26
2018-02-22T17:21:47.000Z,26
2018-02-22T17:22:47.000Z,25
2018-02-22T17:23:47.000Z,25
2018-02-22T17:24:47.000Z,26
2018-02-22T17:25:47.000Z,25
2018-02-22T17:26:47.000Z,26
2018-02-22T17:27:47.000Z,26
2018-02-22T17:28:47.000Z,26
2018-02-22T17:30:47.000Z,25
2018-02-22T17:31:47.000Z,26
2018-02-22T17:32:47.000Z,26
2018-02-22T17:34:47.000Z,26
2018-02-22T17:35:47.000Z,26
2018-02-22T17:36:47.000Z,26
2018-02-22T17:37:47.000Z,26
2018-02-22T17:38:47.000Z,26
2018-02-22T17:39:47.000Z,26
2018-02-22T17:40:47.000Z,26
2018-02-22T17:41:47.000Z,26
2018-02-22T17:42:47.000Z,26
2018-02-22T17:43:47.000Z,26
2018-02-22T17:44:47.000Z,26
2018-02-22T17:45:47.000Z,26
2018-02-22T17:47:47.000Z,26
2018-02-22T17:49:47.000Z,26
2018-02-22T17:50:47.000Z,26
2018-02-22T17:51:47.000Z,26
2018-02-22T17:52:47.000Z,26
2018-02-22T17:53:47.000Z,26
2018-02-22T17:54:47.000Z,26
2018-02-22T17:55:47.000Z,26
2018-02-22T17:56:47.000Z,26
2018-02-22T17:58:47.000Z,26
2018-02-22T17:59:47.000Z,26
2018-02-22T18:00:47.000Z,26
2018-02-22T18:01:47.000Z,26
2018-02-22T18:02:47.000Z,26
2018-02-22T18:03:47.000Z,26
2018-02-22T18:04:47.000Z,26
2018-02-22T18:06:47.000Z,26
2018-02-22T18:07:47.000Z,26
2018-02-22T18:08:47.000Z,26
2018-02-22T18:09:47.000Z,26
2018-02-22T18:10:47.000Z,26
2018-02-22T18:11:47.000Z,26
2018-02-22T18:12:47.000Z,26
2018-02-22T18:13:47.000Z,26
2018-02-22T18:14:47.000Z,26
2018-02-22T18:15:47.000Z,26
2018-02-22T18:16:47.000Z,26
2018-02-22T18:17:47.000Z,26
2018-02-22T18:18:47.000Z,26
2018-02-22T18:19:48.000Z,26
2018-02-22T18:20:48.000Z,26
2018-02-22T18:21:48.000Z,26
2018-02-22T18:22:48.000Z,26
2018-02-22T18:23:48.000Z,26
2018-02-22T18:25:48.000Z,26
2018-02-22T18:26:48.000Z,26
2018-02-22T18:27:48.000Z,26
2018-02-22T18:28:48.000Z,26
2018-02-22T18:29:48.000Z,26
2018-02-22T18:31:48.000Z,26
2018-02-22T18:32:48.000Z,26
2018-02-22T18:33:48.000Z,26
2018-02-22T18:34:48.000Z,26
2018-02-22T18:35:48.000Z,26
2018-02-22T18:36:48.000Z,26
2018-02-22T18:37:48.000Z,26
2018-02-22T18:38:48.000Z,26
2018-02-22T18:39:48.000Z,26
2018-02-22T18:40:48.000Z,26
2018-02-22T18:41:48.000Z,26
2018-02-22T18:42:48.000Z,26
2018-02-22T18:43:48.000Z,26
2018-02-22T18:44:48.000Z,26
2018-02-22T18:45:48.000Z,26
2018-02-22T18:46:48.000Z,26
2018-02-22T18:48:48.000Z,25
2018-02-22T18:49:48.000Z,25
2018-02-22T18:50:48.000Z,26
2018-02-22T18:51:48.000Z,25
2018-02-22T18:52:48.000Z,25
2018-02-22T18:53:48.000Z,25
2018-02-22T18:54:48.000Z,25
2018-02-22T18:56:48.000Z,25
2018-02-22T18:57:48.000Z,25
2018-02-22T18:58:48.000Z,26
2018-02-22T18:59:48.000Z,26
2018-02-22T19:00:48.000Z,25
2018-02-22T19:02:48.000Z,25
2018-02-22T19:03:48.000Z,26
2018-02-22T19:04:48.000Z,25
2018-02-22T19:05:48.000Z,26
2018-02-22T19:06:48.000Z,26
2018-02-22T19:07:48.000Z,25
2018-02-22T19:08:48.000Z,26
2018-02-22T19:09:48.000Z,26
2018-02-22T19:10:48.000Z,26
2018-02-22T19:11:48.000Z,25
2018-02-22T19:12:48.000Z,25
2018-02-22T19:13:48.000Z,25
2018-02-22T19:14:48.000Z,25
2018-02-22T19:15:48.000Z,25
2018-02-22T19:16:48.000Z,25
2018-02-22T19:17:48.000Z,25
2018-02-22T19:19:48.000Z,25
2018-02-22T19:20:48.000Z,25
2018-02-22T19:21:48.000Z,25
2018-02-22T19:22:48.000Z,25
2018-02-22T19:23:47.000Z,25
2018-02-22T19:24:47.000Z,25
2018-02-22T19:25:47.000Z,25
2018-02-22T19:26:47.000Z,25
2018-02-22T19:27:47.000Z,25
2018-02-22T19:28:47.000Z,25
2018-02-22T19:29:47.000Z,25
2018-02-22T19:30:47.000Z,25
2018-02-22T19:31:47.000Z,25
2018-02-22T19:32:47.000Z,25
2018-02-22T19:33:47.000Z,25
2018-02-22T19:34:47.000Z,25
2018-02-22T19:35:47.000Z,25
2018-02-22T19:36:47.000Z,25
2018-02-22T19:37:47.000Z,25
2018-02-22T19:38:47.000Z,25
2018-02-22T19:39:47.000Z,25
2018-02-22T19:40:47.000Z,25
2018-02-22T19:41:47.000Z,25
2018-02-22T19:42:47.000Z,25
2018-02-22T19:43:47.000Z,25
2018-02-22T19:44:47.000Z,25
2018-02-22T19:45:47.000Z,25
2018-02-22T19:46:47.000Z,25
2018-02-22T19:47:47.000Z,25
2018-02-22T19:48:47.000Z,25
2018-02-22T19:49:47.000Z,25
2018-02-22T19:50:47.000Z,25
2018-02-22T19:51:47.000Z,25
2018-02-22T19:53:47.000Z,25
2018-02-22T19:54:47.000Z,25
2018-02-22T19:55:47.000Z,25
2018-02-22T19:56:47.000Z,25
2018-02-22T19:57:47.000Z,25
2018-02-22T19:59:47.000Z,25
2018-02-22T20:00:47.000Z,25
2018-02-22T20:01:47.000Z,25
2018-02-22T20:02:47.000Z,25
2018-02-22T20:03:47.000Z,25
2018-02-22T20:04:47.000Z,25
2018-02-22T20:05:47.000Z,25
2018-02-22T20:06:47.000Z,25
2018-02-22T20:07:47.000Z,25
2018-02-22T20:09:47.000Z,25
2018-02-22T20:10:47.000Z,25
2018-02-22T20:11:47.000Z,25
2018-02-22T20:13:47.000Z,25
2018-02-22T20:14:47.000Z,25
2018-02-22T20:15:47.000Z,25
2018-02-22T20:16:47.000Z,25
2018-02-22T20:17:47.000Z,25
2018-02-22T20:18:47.000Z,25
2018-02-22T20:19:47.000Z,25
2018-02-22T20:21:47.000Z,25
2018-02-22T20:22:47.000Z,25
2018-02-22T20:23:47.000Z,25
2018-02-22T20:24:47.000Z,25
2018-02-22T20:26:48.000Z,25
2018-02-22T20:27:48.000Z,25
2018-02-22T20:28:48.000Z,25
2018-02-22T20:29:48.000Z,25
2018-02-22T20:30:48.000Z,25
2018-02-22T20:31:48.000Z,25
2018-02-22T20:33:48.000Z,25
2018-02-22T20:34:48.000Z,25
2018-02-22T20:35:48.000Z,25
2018-02-22T20:36:48.000Z,25
2018-02-22T20:37:48.000Z,25
2018-02-22T20:38:48.000Z,25
2018-02-22T20:39:48.000Z,25
2018-02-22T20:40:48.000Z,25
2018-02-22T20:41:48.000Z,25
2018-02-22T20:42:48.000Z,25
2018-02-22T20:43:48.000Z,25
2018-02-22T20:44:48.000Z,25
2018-02-22T20:45:48.000Z,25
2018-02-22T20:46:48.000Z,25
2018-02-22T20:47:48.000Z,25
2018-02-22T20:48:48.000Z,25
2018-02-22T20:49:48.000Z,25
2018-02-22T20:50:48.000Z,25
2018-02-22T20:51:48.000Z,25
2018-02-22T20:52:48.000Z,25
2018-02-22T20:53:48.000Z,25
2018-02-22T20:54:48.000Z,25
2018-02-22T20:56:48.000Z,25
2018-02-22T20:57:48.000Z,25
2018-02-22T20:58:48.000Z,25
2018-02-22T20:59:48.000Z,25
2018-02-22T21:01:48.000Z,25
2018-02-22T21:02:48.000Z,25
2018-02-22T21:03:48.000Z,25
2018-02-22T21:04:48.000Z,25
2018-02-22T21:05:48.000Z,25
2018-02-22T21:06:48.000Z,25
2018-02-22T21:07:48.000Z,25
2018-02-22T21:09:48.000Z,25
2018-02-22T21:10:48.000Z,25
2018-02-22T21:11:48.000Z,25
2018-02-22T21:12:48.000Z,25
2018-02-22T21:14:48.000Z,25
2018-02-22T21:15:48.000Z,25
2018-02-22T21:16:48.000Z,25
2018-02-22T21:17:48.000Z,25
2018-02-22T21:18:48.000Z,25
2018-02-22T21:20:48.000Z,25
2018-02-22T21:21:48.000Z,25
2018-02-22T21:22:48.000Z,25
2018-02-22T21:23:48.000Z,25
2018-02-22T21:24:48.000Z,25
2018-02-22T21:26:48.000Z,25
2018-02-22T21:28:48.000Z,25
2018-02-22T21:29:48.000Z,25
2018-02-22T21:30:47.000Z,25
2018-02-22T21:31:47.000Z,25
2018-02-22T21:33:47.000Z,25
2018-02-22T21:35:47.000Z,25
2018-02-22T21:36:47.000Z,25
2018-02-22T21:37:47.000Z,25
2018-02-22T21:38:47.000Z,25
2018-02-22T21:39:47.000Z,25
2018-02-22T21:40:47.000Z,25
2018-02-22T21:41:47.000Z,25
2018-02-22T21:42:47.000Z,25
2018-02-22T21:43:47.000Z,25
2018-02-22T21:44:47.000Z,25
2018-02-22T21:45:47.000Z,25
2018-02-22T21:46:47.000Z,25
2018-02-22T21:47:47.000Z,25
2018-02-22T21:49:47.000Z,25
2018-02-22T21:50:47.000Z,25
2018-02-22T21:51:47.000Z,25
2018-02-22T21:52:47.000Z,25
2018-02-22T21:53:47.000Z,25
2018-02-22T21:54:47.000Z,25
2018-02-22T21:55:47.000Z,25
2018-02-22T21:56:47.000Z,25
2018-02-22T21:58:47.000Z,25
2018-02-22T21:59:47.000Z,25
2018-02-22T22:00:47.000Z,25
2018-02-22T22:01:47.000Z,25
2018-02-22T22:02:47.000Z,25
2018-02-22T22:03:47.000Z,25
2018-02-22T22:04:47.000Z,25
2018-02-22T22:06:47.000Z,25
2018-02-22T22:07:47.000Z,25
2018-02-22T22:08:47.000Z,25
2018-02-22T22:09:47.000Z,25
2018-02-22T22:10:47.000Z,25
2018-02-22T22:11:47.000Z,25
2018-02-22T22:12:47.000Z,25
2018-02-22T22:13:47.000Z,25
2018-02-22T22:14:47.000Z,25
2018-02-22T22:15:47.000Z,25
2018-02-22T22:16:47.000Z,25
2018-02-22T22:17:47.000Z,25
2018-02-22T22:19:47.000Z,25
2018-02-22T22:20:47.000Z,25
2018-02-22T22:21:47.000Z,25
2018-02-22T22:22:47.000Z,25
2018-02-22T22:23:47.000Z,25
2018-02-22T22:24:47.000Z,25
2018-02-22T22:25:47.000Z,25
2018-02-22T22:26:47.000Z,25
2018-02-22T22:27:47.000Z,25
2018-02-22T22:28:47.000Z,25
2018-02-22T22:29:47.000Z,25
2018-02-22T22:30:47.000Z,25
2018-02-22T22:31:47.000Z,25
2018-02-22T22:32:47.000Z,25
2018-02-22T22:34:47.000Z,25
2018-02-22T22:35:47.000Z,25
2018-02-22T22:36:47.000Z,25
2018-02-22T22:38:47.000Z,25
2018-02-22T22:39:47.000Z,25
2018-02-22T22:40:47.000Z,25
2018-02-22T22:41:47.000Z,25
2018-02-22T22:42:47.000Z,25
2018-02-22T22:43:47.000Z,25
2018-02-22T22:44:47.000Z,25
2018-02-22T22:45:47.000Z,25